sensor_id;sensor_type;location;lat;lon;timestamp;pressure;altitude;pressure_sealevel;temperature;humidity
72585;BME280;60618;40.084;32.908;2022-08-19T00:01:51;89133.69;;;22.13;42.03
72585;BME280;60618;40.084;32.908;2022-08-19T00:04:25;89138.03;;;22.08;41.99
72585;BME280;60618;40.084;32.908;2022-08-19T00:06:52;89131.53;;;22.04;42.07
72585;BME280;60618;40.084;32.908;2022-08-19T00:09:21;89135.53;;;22.03;41.94
72585;BME280;60618;40.084;32.908;2022-08-19T00:11:49;89138.44;;;21.97;42.06
72585;BME280;60618;40.084;32.908;2022-08-19T00:14:16;89138.44;;;21.97;42.08
72585;BME280;60618;40.084;32.908;2022-08-19T00:16:46;89139.16;;;21.98;42.33
72585;BME280;60618;40.084;32.908;2022-08-19T00:19:13;89140.28;;;21.95;42.41
72585;BME280;60618;40.084;32.908;2022-08-19T00:21:41;89131.22;;;21.92;43.10
72585;BME280;60618;40.084;32.908;2022-08-19T00:24:09;89131.63;;;21.89;43.23
72585;BME280;60618;40.084;32.908;2022-08-19T00:26:37;89131.31;;;21.85;43.41
72585;BME280;60618;40.084;32.908;2022-08-19T00:29:06;89142.50;;;21.81;43.17
72585;BME280;60618;40.084;32.908;2022-08-19T00:31:33;89138.53;;;21.82;43.14
72585;BME280;60618;40.084;32.908;2022-08-19T00:34:01;89137.81;;;21.81;43.43
72585;BME280;60618;40.084;32.908;2022-08-19T00:36:28;89129.31;;;21.85;43.19
72585;BME280;60618;40.084;32.908;2022-08-19T00:38:55;89142.88;;;21.85;43.29
72585;BME280;60618;40.084;32.908;2022-08-19T00:41:24;89137.09;;;21.81;43.60
72585;BME280;60618;40.084;32.908;2022-08-19T00:44:02;89144.34;;;21.78;44.00
72585;BME280;60618;40.084;32.908;2022-08-19T00:46:31;89146.88;;;21.76;43.83
72585;BME280;60618;40.084;32.908;2022-08-19T00:48:59;89144.91;;;21.77;43.98
72585;BME280;60618;40.084;32.908;2022-08-19T00:51:28;89139.31;;;21.75;44.34
72585;BME280;60618;40.084;32.908;2022-08-19T00:53:57;89133.34;;;21.76;43.90
72585;BME280;60618;40.084;32.908;2022-08-19T00:56:25;89139.84;;;21.73;44.51
72585;BME280;60618;40.084;32.908;2022-08-19T00:58:55;89142.38;;;21.71;44.31
72585;BME280;60618;40.084;32.908;2022-08-19T01:01:23;89143.81;;;21.72;44.69
72585;BME280;60618;40.084;32.908;2022-08-19T01:03:50;89144.94;;;21.69;44.64
72585;BME280;60618;40.084;32.908;2022-08-19T01:06:25;89141.13;;;21.65;44.91
72585;BME280;60618;40.084;32.908;2022-08-19T01:08:54;89147.66;;;21.62;44.72
72585;BME280;60618;40.084;32.908;2022-08-19T01:11:21;89142.44;;;21.56;44.92
72585;BME280;60618;40.084;32.908;2022-08-19T01:13:48;89148.81;;;21.51;45.10
72585;BME280;60618;40.084;32.908;2022-08-19T01:16:17;89135.09;;;21.49;45.77
72585;BME280;60618;40.084;32.908;2022-08-19T01:18:46;89137.06;;;21.48;45.35
72585;BME280;60618;40.084;32.908;2022-08-19T01:21:30;89142.31;;;21.46;45.58
72585;BME280;60618;40.084;32.908;2022-08-19T01:23:58;89134.41;;;21.41;45.55
72585;BME280;60618;40.084;32.908;2022-08-19T01:26:27;89131.84;;;21.43;45.54
72585;BME280;60618;40.084;32.908;2022-08-19T01:28:58;89128.97;;;21.41;45.56
72585;BME280;60618;40.084;32.908;2022-08-19T01:31:27;89131.84;;;21.43;45.62
72585;BME280;60618;40.084;32.908;2022-08-19T01:33:58;89128.22;;;21.48;45.42
72585;BME280;60618;40.084;32.908;2022-08-19T01:36:32;89132.53;;;21.51;45.11
72585;BME280;60618;40.084;32.908;2022-08-19T01:39:06;89128.94;;;21.48;45.55
72585;BME280;60618;40.084;32.908;2022-08-19T01:41:33;89133.09;;;21.49;45.51
72585;BME280;60618;40.084;32.908;2022-08-19T01:44:01;89134.53;;;21.50;45.45
72585;BME280;60618;40.084;32.908;2022-08-19T01:46:46;89135.41;;;21.53;45.43
72585;BME280;60618;40.084;32.908;2022-08-19T01:49:16;89141.03;;;21.47;46.00
72585;BME280;60618;40.084;32.908;2022-08-19T01:51:43;89140.88;;;21.45;46.04
72585;BME280;60618;40.084;32.908;2022-08-19T01:54:12;89137.28;;;21.43;45.59
72585;BME280;60618;40.084;32.908;2022-08-19T01:57:05;89137.28;;;21.43;45.56
72585;BME280;60618;40.084;32.908;2022-08-19T01:59:33;89138.31;;;21.47;45.24
72585;BME280;60618;40.084;32.908;2022-08-19T02:02:01;89138.88;;;21.46;45.39
72585;BME280;60618;40.084;32.908;2022-08-19T02:04:29;89141.97;;;21.42;45.74
72585;BME280;60618;40.084;32.908;2022-08-19T02:06:57;89135.66;;;21.40;45.57
72585;BME280;60618;40.084;32.908;2022-08-19T02:09:24;89138.00;;;21.36;46.05
72585;BME280;60618;40.084;32.908;2022-08-19T02:11:51;89140.56;;;21.34;45.83
72585;BME280;60618;40.084;32.908;2022-08-19T02:14:17;89141.09;;;21.32;45.90
72585;BME280;60618;40.084;32.908;2022-08-19T02:16:44;89146.16;;;21.28;46.01
72585;BME280;60618;40.084;32.908;2022-08-19T02:19:11;89137.31;;;21.28;45.68
72585;BME280;60618;40.084;32.908;2022-08-19T02:21:38;89141.28;;;21.27;45.61
72585;BME280;60618;40.084;32.908;2022-08-19T02:24:05;89140.94;;;21.30;45.79
72585;BME280;60618;40.084;32.908;2022-08-19T02:26:32;89144.91;;;21.29;45.63
72585;BME280;60618;40.084;32.908;2022-08-19T02:28:59;89151.94;;;21.32;45.60
72585;BME280;60618;40.084;32.908;2022-08-19T02:31:26;89145.41;;;21.35;45.58
72585;BME280;60618;40.084;32.908;2022-08-19T02:33:54;89139.84;;;21.33;45.20
72585;BME280;60618;40.084;32.908;2022-08-19T02:36:23;89145.97;;;21.34;45.37
72585;BME280;60618;40.084;32.908;2022-08-19T02:38:51;89151.41;;;21.34;45.51
72585;BME280;60618;40.084;32.908;2022-08-19T02:41:26;89159.34;;;21.32;45.56
72585;BME280;60618;40.084;32.908;2022-08-19T02:43:54;89149.59;;;21.29;45.85
72585;BME280;60618;40.084;32.908;2022-08-19T02:46:41;89151.94;;;21.24;46.00
72585;BME280;60618;40.084;32.908;2022-08-19T02:49:08;89152.50;;;21.23;46.14
72585;BME280;60618;40.084;32.908;2022-08-19T02:51:41;89153.22;;;21.23;45.96
72585;BME280;60618;40.084;32.908;2022-08-19T02:54:10;89144.19;;;21.21;45.91
72585;BME280;60618;40.084;32.908;2022-08-19T02:56:39;89157.00;;;21.20;45.92
72585;BME280;60618;40.084;32.908;2022-08-19T02:59:06;89155.03;;;21.21;46.22
72585;BME280;60618;40.084;32.908;2022-08-19T03:01:35;89147.25;;;21.17;46.43
72585;BME280;60618;40.084;32.908;2022-08-19T03:04:04;89155.94;;;21.16;46.38
72585;BME280;60618;40.084;32.908;2022-08-19T03:06:34;89159.19;;;21.14;46.48
72585;BME280;60618;40.084;32.908;2022-08-19T03:09:02;89153.97;;;21.09;46.77
72585;BME280;60618;40.084;32.908;2022-08-19T03:11:31;89155.59;;;21.04;46.80
72585;BME280;60618;40.084;32.908;2022-08-19T03:13:59;89159.03;;;21.05;46.91
72585;BME280;60618;40.084;32.908;2022-08-19T03:16:28;89159.59;;;21.03;46.62
72585;BME280;60618;40.084;32.908;2022-08-19T03:18:59;89154.88;;;21.04;46.53
72585;BME280;60618;40.084;32.908;2022-08-19T03:21:29;89159.59;;;21.03;46.60
72585;BME280;60618;40.084;32.908;2022-08-19T03:23:59;89164.25;;;21.03;46.78
72585;BME280;60618;40.084;32.908;2022-08-19T03:26:27;89166.97;;;21.03;46.73
72585;BME280;60618;40.084;32.908;2022-08-19T03:28:54;89170.03;;;21.07;46.99
72585;BME280;60618;40.084;32.908;2022-08-19T03:31:26;89171.66;;;21.10;46.77
72585;BME280;60618;40.084;32.908;2022-08-19T03:34:16;89168.38;;;21.19;47.04
72585;BME280;60618;40.084;32.908;2022-08-19T03:36:43;89164.22;;;21.25;46.63
72585;BME280;60618;40.084;32.908;2022-08-19T03:39:10;89165.28;;;21.38;46.12
72585;BME280;60618;40.084;32.908;2022-08-19T03:41:39;89166.50;;;21.52;46.06
72585;BME280;60618;40.084;32.908;2022-08-19T03:44:12;89172.78;;;21.62;46.00
72585;BME280;60618;40.084;32.908;2022-08-19T03:46:45;89171.09;;;21.74;45.53
72585;BME280;60618;40.084;32.908;2022-08-19T03:49:12;89167.25;;;21.85;45.33
72585;BME280;60618;40.084;32.908;2022-08-19T03:51:41;89177.69;;;21.96;45.21
72585;BME280;60618;40.084;32.908;2022-08-19T03:54:11;89171.31;;;22.09;45.06
72585;BME280;60618;40.084;32.908;2022-08-19T03:56:40;89169.78;;;22.23;44.70
72585;BME280;60618;40.084;32.908;2022-08-19T03:59:12;89173.50;;;22.35;44.51
72585;BME280;60618;40.084;32.908;2022-08-19T04:01:39;89176.88;;;22.44;44.37
72585;BME280;60618;40.084;32.908;2022-08-19T04:04:06;89179.69;;;22.53;44.21
72585;BME280;60618;40.084;32.908;2022-08-19T04:06:36;89179.50;;;22.59;44.26
72585;BME280;60618;40.084;32.908;2022-08-19T04:09:08;89173.28;;;22.66;43.85
72585;BME280;60618;40.084;32.908;2022-08-19T04:11:56;89173.38;;;22.76;43.62
72585;BME280;60618;40.084;32.908;2022-08-19T04:14:26;89177.66;;;22.86;43.53
72585;BME280;60618;40.084;32.908;2022-08-19T04:16:54;89173.19;;;22.99;43.43
72585;BME280;60618;40.084;32.908;2022-08-19T04:19:20;89176.91;;;23.11;43.03
72585;BME280;60618;40.084;32.908;2022-08-19T04:21:50;89173.72;;;23.22;42.97
72585;BME280;60618;40.084;32.908;2022-08-19T04:24:19;89184.09;;;23.33;42.38
72585;BME280;60618;40.084;32.908;2022-08-19T04:26:47;89185.22;;;23.47;42.06
72585;BME280;60618;40.084;32.908;2022-08-19T04:29:17;89179.63;;;23.63;41.72
72585;BME280;60618;40.084;32.908;2022-08-19T04:31:45;89185.06;;;23.80;41.67
72585;BME280;60618;40.084;32.908;2022-08-19T04:34:14;89182.00;;;23.93;41.43
72585;BME280;60618;40.084;32.908;2022-08-19T04:36:43;89187.09;;;24.06;41.23
72585;BME280;60618;40.084;32.908;2022-08-19T04:39:13;89180.16;;;24.23;40.84
72585;BME280;60618;40.084;32.908;2022-08-19T04:41:41;89179.84;;;24.36;41.23
72585;BME280;60618;40.084;32.908;2022-08-19T04:44:08;89194.97;;;24.56;40.60
72585;BME280;60618;40.084;32.908;2022-08-19T04:46:36;89194.31;;;24.66;39.98
72585;BME280;60618;40.084;32.908;2022-08-19T04:49:18;89195.34;;;24.80;39.92
72585;BME280;60618;40.084;32.908;2022-08-19T04:51:46;89190.50;;;24.88;38.76
72585;BME280;60618;40.084;32.908;2022-08-19T04:54:14;89198.41;;;24.94;38.80
72585;BME280;60618;40.084;32.908;2022-08-19T04:57:02;89197.47;;;25.08;39.27
72585;BME280;60618;40.084;32.908;2022-08-19T04:59:29;89189.59;;;25.12;38.02
72585;BME280;60618;40.084;32.908;2022-08-19T05:01:56;89190.31;;;25.13;38.50
72585;BME280;60618;40.084;32.908;2022-08-19T05:04:23;89187.44;;;25.21;38.27
72585;BME280;60618;40.084;32.908;2022-08-19T05:06:50;89188.03;;;25.29;38.20
72585;BME280;60618;40.084;32.908;2022-08-19T05:09:17;89189.34;;;25.37;38.16
72585;BME280;60618;40.084;32.908;2022-08-19T05:11:44;89189.50;;;25.49;37.95
72585;BME280;60618;40.084;32.908;2022-08-19T05:14:11;89188.22;;;25.60;38.20
72585;BME280;60618;40.084;32.908;2022-08-19T05:16:39;89193.84;;;25.71;37.94
72585;BME280;60618;40.084;32.908;2022-08-19T05:19:05;89191.97;;;25.84;37.82
72585;BME280;60618;40.084;32.908;2022-08-19T05:21:33;89188.78;;;25.97;37.46
72585;BME280;60618;40.084;32.908;2022-08-19T05:24:00;89183.47;;;26.18;37.86
72585;BME280;60618;40.084;32.908;2022-08-19T05:26:27;89185.16;;;26.33;37.34
72585;BME280;60618;40.084;32.908;2022-08-19T05:28:55;89183.56;;;26.49;37.05
72585;BME280;60618;40.084;32.908;2022-08-19T05:31:22;89183.94;;;26.65;36.60
72585;BME280;60618;40.084;32.908;2022-08-19T05:33:48;89185.47;;;26.78;36.56
72585;BME280;60618;40.084;32.908;2022-08-19T05:36:15;89187.72;;;26.91;36.12
72585;BME280;60618;40.084;32.908;2022-08-19T05:38:42;89189.69;;;27.00;35.86
72585;BME280;60618;40.084;32.908;2022-08-19T05:41:12;89187.78;;;27.12;35.86
72585;BME280;60618;40.084;32.908;2022-08-19T05:43:40;89184.44;;;27.24;35.83
72585;BME280;60618;40.084;32.908;2022-08-19T05:46:07;89169.00;;;27.28;35.34
72585;BME280;60618;40.084;32.908;2022-08-19T05:48:35;89175.38;;;27.42;34.81
72585;BME280;60618;40.084;32.908;2022-08-19T05:51:05;89183.41;;;27.50;34.49
72585;BME280;60618;40.084;32.908;2022-08-19T06:10:45;89182.66;;;28.14;34.15
72585;BME280;60618;40.084;32.908;2022-08-19T06:13:12;89186.34;;;28.18;32.90
72585;BME280;60618;40.084;32.908;2022-08-19T06:15:38;89185.88;;;28.22;32.79
72585;BME280;60618;40.084;32.908;2022-08-19T06:18:05;89183.66;;;28.30;32.88
72585;BME280;60618;40.084;32.908;2022-08-19T06:20:32;89187.28;;;28.44;32.38
72585;BME280;60618;40.084;32.908;2022-08-19T06:23:19;89182.41;;;28.54;33.03
72585;BME280;60618;40.084;32.908;2022-08-19T06:25:49;89184.94;;;28.62;31.99
72585;BME280;60618;40.084;32.908;2022-08-19T06:28:16;89185.53;;;28.72;31.91
72585;BME280;60618;40.084;32.908;2022-08-19T06:30:44;89176.72;;;28.74;31.90
72585;BME280;60618;40.084;32.908;2022-08-19T06:33:11;89175.53;;;28.77;31.74
72585;BME280;60618;40.084;32.908;2022-08-19T06:35:39;89179.72;;;28.78;31.42
72585;BME280;60618;40.084;32.908;2022-08-19T06:38:07;89179.22;;;28.81;31.98
72585;BME280;60618;40.084;32.908;2022-08-19T06:40:34;89182.47;;;28.90;31.59
72585;BME280;60618;40.084;32.908;2022-08-19T06:43:01;89182.84;;;28.96;31.60
72585;BME280;60618;40.084;32.908;2022-08-19T06:45:30;89176.41;;;29.03;30.92
72585;BME280;60618;40.084;32.908;2022-08-19T06:48:01;89181.53;;;29.08;30.16
72585;BME280;60618;40.084;32.908;2022-08-19T06:50:28;89178.53;;;29.16;31.09
72585;BME280;60618;40.084;32.908;2022-08-19T06:52:55;89173.19;;;29.30;30.73
72585;BME280;60618;40.084;32.908;2022-08-19T06:55:23;89169.81;;;29.43;30.35
72585;BME280;60618;40.084;32.908;2022-08-19T06:57:50;89174.94;;;29.60;30.55
72585;BME280;60618;40.084;32.908;2022-08-19T07:00:17;89178.84;;;29.69;30.44
72585;BME280;60618;40.084;32.908;2022-08-19T07:02:44;89173.13;;;29.65;30.50
72585;BME280;60618;40.084;32.908;2022-08-19T07:05:21;89178.03;;;29.66;30.54
72585;BME280;60618;40.084;32.908;2022-08-19T07:07:48;89177.16;;;29.76;30.48
72585;BME280;60618;40.084;32.908;2022-08-19T07:10:16;89178.25;;;29.71;30.18
72585;BME280;60618;40.084;32.908;2022-08-19T07:12:43;89176.22;;;29.71;30.20
72585;BME280;60618;40.084;32.908;2022-08-19T07:15:11;89175.34;;;29.80;30.29
72585;BME280;60618;40.084;32.908;2022-08-19T07:17:38;89177.38;;;29.80;30.53
72585;BME280;60618;40.084;32.908;2022-08-19T07:20:07;89170.47;;;29.79;30.37
72585;BME280;60618;40.084;32.908;2022-08-19T07:22:39;89176.31;;;29.85;30.92
72585;BME280;60618;40.084;32.908;2022-08-19T07:25:08;89174.22;;;29.97;31.00
72585;BME280;60618;40.084;32.908;2022-08-19T07:27:36;89164.16;;;30.13;31.55
72585;BME280;60618;40.084;32.908;2022-08-19T07:30:06;89178.50;;;30.37;30.37
72585;BME280;60618;40.084;32.908;2022-08-19T07:32:37;89172.84;;;30.47;30.50
72585;BME280;60618;40.084;32.908;2022-08-19T07:35:04;89175.63;;;30.61;30.50
72585;BME280;60618;40.084;32.908;2022-08-19T07:37:31;89170.50;;;30.80;30.23
72585;BME280;60618;40.084;32.908;2022-08-19T07:40:00;89169.06;;;30.79;29.75
72585;BME280;60618;40.084;32.908;2022-08-19T07:42:27;89168.66;;;30.71;28.99
72585;BME280;60618;40.084;32.908;2022-08-19T07:44:54;89169.78;;;30.66;29.41
72585;BME280;60618;40.084;32.908;2022-08-19T07:47:21;89168.00;;;30.59;29.65
72585;BME280;60618;40.084;32.908;2022-08-19T07:50:09;89160.03;;;30.51;29.14
72585;BME280;60618;40.084;32.908;2022-08-19T07:52:37;89164.81;;;30.51;29.48
72585;BME280;60618;40.084;32.908;2022-08-19T07:55:06;89157.19;;;30.49;29.55
72585;BME280;60618;40.084;32.908;2022-08-19T07:57:53;89149.22;;;30.42;29.75
72585;BME280;60618;40.084;32.908;2022-08-19T08:00:20;89151.84;;;30.40;30.34
72585;BME280;60618;40.084;32.908;2022-08-19T08:02:51;89155.94;;;30.52;29.76
72585;BME280;60618;40.084;32.908;2022-08-19T08:05:21;89138.09;;;30.65;29.21
72585;BME280;60618;40.084;32.908;2022-08-19T08:07:48;89161.38;;;30.64;29.95
72585;BME280;60618;40.084;32.908;2022-08-19T08:10:15;89151.28;;;30.55;29.89
72585;BME280;60618;40.084;32.908;2022-08-19T08:12:47;89154.34;;;30.61;30.41
72585;BME280;60618;40.084;32.908;2022-08-19T08:15:34;89145.66;;;30.78;30.10
72585;BME280;60618;40.084;32.908;2022-08-19T08:18:07;89144.84;;;30.90;29.70
72585;BME280;60618;40.084;32.908;2022-08-19T08:20:34;89141.47;;;30.91;29.55
72585;BME280;60618;40.084;32.908;2022-08-19T08:23:01;89148.13;;;31.00;30.11
72585;BME280;60618;40.084;32.908;2022-08-19T08:25:28;89154.13;;;30.96;29.71
72585;BME280;60618;40.084;32.908;2022-08-19T08:27:59;89157.59;;;30.97;29.92
72585;BME280;60618;40.084;32.908;2022-08-19T08:30:28;89160.34;;;30.97;29.68
72585;BME280;60618;40.084;32.908;2022-08-19T08:32:58;89155.06;;;31.01;29.74
72585;BME280;60618;40.084;32.908;2022-08-19T08:35:28;89154.97;;;31.13;29.26
72585;BME280;60618;40.084;32.908;2022-08-19T08:37:55;89148.84;;;31.14;29.10
72585;BME280;60618;40.084;32.908;2022-08-19T08:40:45;89147.25;;;31.23;29.43
72585;BME280;60618;40.084;32.908;2022-08-19T08:45:54;89141.44;;;31.30;29.16
72585;BME280;60618;40.084;32.908;2022-08-19T08:51:02;89139.94;;;31.27;29.10
72585;BME280;60618;40.084;32.908;2022-08-19T08:53:31;89146.94;;;31.30;28.94
72585;BME280;60618;40.084;32.908;2022-08-19T08:56:06;89140.53;;;31.40;28.55
72585;BME280;60618;40.084;32.908;2022-08-19T09:01:20;89144.69;;;31.41;28.17
72585;BME280;60618;40.084;32.908;2022-08-19T09:03:47;89133.38;;;31.48;28.54
72585;BME280;60618;40.084;32.908;2022-08-19T09:09:03;89139.69;;;31.64;28.32
72585;BME280;60618;40.084;32.908;2022-08-19T09:11:56;89132.41;;;31.71;28.28
72585;BME280;60618;40.084;32.908;2022-08-19T09:17:28;89131.09;;;31.72;28.14
72585;BME280;60618;40.084;32.908;2022-08-19T09:22:27;89120.59;;;31.82;28.30
72585;BME280;60618;40.084;32.908;2022-08-19T09:24:54;89125.47;;;31.70;28.08
72585;BME280;60618;40.084;32.908;2022-08-19T09:27:22;89121.81;;;31.79;27.78
72585;BME280;60618;40.084;32.908;2022-08-19T09:30:14;89115.41;;;31.61;28.09
72585;BME280;60618;40.084;32.908;2022-08-19T09:32:41;89133.69;;;31.41;28.43
72585;BME280;60618;40.084;32.908;2022-08-19T09:35:09;89136.75;;;31.47;28.58
72585;BME280;60618;40.084;32.908;2022-08-19T09:37:37;89137.47;;;31.33;28.50
72585;BME280;60618;40.084;32.908;2022-08-19T09:40:06;89125.94;;;31.23;28.13
72585;BME280;60618;40.084;32.908;2022-08-19T09:42:37;89118.06;;;31.04;28.36
72585;BME280;60618;40.084;32.908;2022-08-19T09:45:16;89118.16;;;30.78;28.77
72585;BME280;60618;40.084;32.908;2022-08-19T09:47:43;89115.41;;;30.65;29.50
72585;BME280;60618;40.084;32.908;2022-08-19T09:50:12;89123.13;;;30.68;29.35
72585;BME280;60618;40.084;32.908;2022-08-19T09:52:42;89116.63;;;30.75;29.44
72585;BME280;60618;40.084;32.908;2022-08-19T09:55:22;89116.22;;;30.81;29.12
72585;BME280;60618;40.084;32.908;2022-08-19T09:57:49;89117.16;;;30.86;29.14
72585;BME280;60618;40.084;32.908;2022-08-19T10:00:16;89119.00;;;30.95;29.15
72585;BME280;60618;40.084;32.908;2022-08-19T10:02:43;89125.72;;;30.92;29.25
72585;BME280;60618;40.084;32.908;2022-08-19T10:05:11;89115.81;;;30.87;29.17
72585;BME280;60618;40.084;32.908;2022-08-19T10:07:39;89118.56;;;30.87;29.62
72585;BME280;60618;40.084;32.908;2022-08-19T10:10:06;89118.75;;;30.91;29.70
72585;BME280;60618;40.084;32.908;2022-08-19T10:12:34;89114.91;;;30.96;29.65
72585;BME280;60618;40.084;32.908;2022-08-19T10:15:02;89114.63;;;31.03;28.97
72585;BME280;60618;40.084;32.908;2022-08-19T10:17:29;89112.06;;;31.07;29.39
72585;BME280;60618;40.084;32.908;2022-08-19T10:20:02;89115.75;;;31.12;29.66
72585;BME280;60618;40.084;32.908;2022-08-19T10:22:29;89112.47;;;31.16;29.89
72585;BME280;60618;40.084;32.908;2022-08-19T10:24:56;89109.09;;;31.17;28.83
72585;BME280;60618;40.084;32.908;2022-08-19T10:27:23;89112.38;;;31.14;29.02
72585;BME280;60618;40.084;32.908;2022-08-19T10:29:51;89118.38;;;31.10;29.02
72585;BME280;60618;40.084;32.908;2022-08-19T10:32:23;89108.72;;;31.23;29.01
72585;BME280;60618;40.084;32.908;2022-08-19T10:35:00;89107.69;;;31.44;28.75
72585;BME280;60618;40.084;32.908;2022-08-19T10:37:27;89114.81;;;31.49;28.62
72585;BME280;60618;40.084;32.908;2022-08-19T10:39:58;89100.50;;;31.66;28.19
72585;BME280;60618;40.084;32.908;2022-08-19T10:42:24;89100.06;;;31.72;28.07
72585;BME280;60618;40.084;32.908;2022-08-19T10:44:51;89097.94;;;31.70;28.01
72585;BME280;60618;40.084;32.908;2022-08-19T10:47:18;89096.34;;;31.65;27.82
72585;BME280;60618;40.084;32.908;2022-08-19T10:49:52;89092.25;;;31.66;28.11
72585;BME280;60618;40.084;32.908;2022-08-19T10:52:21;89090.72;;;31.77;28.00
72585;BME280;60618;40.084;32.908;2022-08-19T10:54:57;89089.69;;;31.84;27.32
72585;BME280;60618;40.084;32.908;2022-08-19T10:57:31;89082.59;;;31.95;27.96
72585;BME280;60618;40.084;32.908;2022-08-19T11:00:19;89081.72;;;32.06;27.94
72585;BME280;60618;40.084;32.908;2022-08-19T11:02:47;89080.16;;;32.16;27.71
72585;BME280;60618;40.084;32.908;2022-08-19T11:05:14;89078.22;;;32.19;27.80
72585;BME280;60618;40.084;32.908;2022-08-19T11:07:41;89084.63;;;32.24;26.88
72585;BME280;60618;40.084;32.908;2022-08-19T11:10:10;89080.88;;;32.17;27.05
72585;BME280;60618;40.084;32.908;2022-08-19T11:12:39;89077.41;;;32.16;27.13
72585;BME280;60618;40.084;32.908;2022-08-19T11:15:08;89071.00;;;32.12;26.59
72585;BME280;60618;40.084;32.908;2022-08-19T11:17:35;89071.03;;;31.98;26.83
72585;BME280;60618;40.084;32.908;2022-08-19T11:20:03;89065.69;;;31.86;27.21
72585;BME280;60618;40.084;32.908;2022-08-19T11:22:30;89064.81;;;31.98;26.35
72585;BME280;60618;40.084;32.908;2022-08-19T11:25:03;89060.09;;;31.84;26.86
72585;BME280;60618;40.084;32.908;2022-08-19T11:27:30;89056.00;;;31.72;27.06
72585;BME280;60618;40.084;32.908;2022-08-19T11:29:57;89057.88;;;31.67;27.37
72585;BME280;60618;40.084;32.908;2022-08-19T11:32:24;89048.84;;;31.51;27.03
72585;BME280;60618;40.084;32.908;2022-08-19T11:34:50;89057.50;;;31.59;27.07
72585;BME280;60618;40.084;32.908;2022-08-19T11:37:18;89049.16;;;31.43;26.90
72585;BME280;60618;40.084;32.908;2022-08-19T11:39:45;89053.44;;;31.46;27.07
72585;BME280;60618;40.084;32.908;2022-08-19T11:42:19;89049.88;;;31.44;26.80
72585;BME280;60618;40.084;32.908;2022-08-19T11:44:46;89053.63;;;31.50;27.47
72585;BME280;60618;40.084;32.908;2022-08-19T11:47:13;89043.09;;;31.60;27.83
72585;BME280;60618;40.084;32.908;2022-08-19T11:49:39;89041.84;;;31.77;27.00
72585;BME280;60618;40.084;32.908;2022-08-19T11:52:06;89036.34;;;31.77;25.84
72585;BME280;60618;40.084;32.908;2022-08-19T11:54:33;89041.84;;;31.77;25.90
72585;BME280;60618;40.084;32.908;2022-08-19T11:57:03;89035.94;;;31.99;25.84
72585;BME280;60618;40.084;32.908;2022-08-19T11:59:30;89026.44;;;32.02;25.38
72585;BME280;60618;40.084;32.908;2022-08-19T12:01:57;89030.50;;;31.85;25.80
72585;BME280;60618;40.084;32.908;2022-08-19T12:04:23;89030.59;;;31.87;25.98
72585;BME280;60618;40.084;32.908;2022-08-19T12:06:51;89031.38;;;31.89;25.66
72585;BME280;60618;40.084;32.908;2022-08-19T12:09:18;89026.75;;;31.78;25.70
72585;BME280;60618;40.084;32.908;2022-08-19T12:11:44;89029.00;;;31.68;25.93
72585;BME280;60618;40.084;32.908;2022-08-19T12:14:13;89026.16;;;31.66;26.37
72585;BME280;60618;40.084;32.908;2022-08-19T12:16:43;89024.22;;;31.69;26.40
72585;BME280;60618;40.084;32.908;2022-08-19T12:19:18;89027.25;;;31.75;25.83
72585;BME280;60618;40.084;32.908;2022-08-19T12:21:48;89019.81;;;31.77;25.94
72585;BME280;60618;40.084;32.908;2022-08-19T12:24:15;89020.72;;;31.82;25.77
72585;BME280;60618;40.084;32.908;2022-08-19T12:26:42;89020.19;;;31.85;25.66
72585;BME280;60618;40.084;32.908;2022-08-19T12:29:20;89014.69;;;31.85;25.29
72585;BME280;60618;40.084;32.908;2022-08-19T12:31:50;89013.97;;;31.85;24.90
72585;BME280;60618;40.084;32.908;2022-08-19T12:34:17;89014.41;;;31.79;24.71
72585;BME280;60618;40.084;32.908;2022-08-19T12:36:43;89008.09;;;31.77;24.70
72585;BME280;60618;40.084;32.908;2022-08-19T12:39:10;89004.72;;;31.78;25.26
72585;BME280;60618;40.084;32.908;2022-08-19T12:41:39;89003.66;;;31.85;24.94
72585;BME280;60618;40.084;32.908;2022-08-19T12:44:19;88998.53;;;31.94;24.67
72585;BME280;60618;40.084;32.908;2022-08-19T12:46:55;89004.22;;;31.98;24.41
72585;BME280;60618;40.084;32.908;2022-08-19T12:49:22;89002.72;;;31.95;24.52
72585;BME280;60618;40.084;32.908;2022-08-19T12:52:10;89001.78;;;31.90;24.24
72585;BME280;60618;40.084;32.908;2022-08-19T12:54:39;89001.72;;;31.88;24.35
72585;BME280;60618;40.084;32.908;2022-08-19T12:57:07;89003.84;;;31.89;24.46
72585;BME280;60618;40.084;32.908;2022-08-19T12:59:38;89000.50;;;31.91;24.15
72585;BME280;60618;40.084;32.908;2022-08-19T13:02:06;88996.53;;;31.80;24.42
72585;BME280;60618;40.084;32.908;2022-08-19T13:04:34;88998.28;;;31.74;24.61
72585;BME280;60618;40.084;32.908;2022-08-19T13:07:02;88998.63;;;31.66;24.65
72585;BME280;60618;40.084;32.908;2022-08-19T13:09:30;89000.47;;;31.61;25.11
72585;BME280;60618;40.084;32.908;2022-08-19T13:11:57;89001.78;;;31.60;25.19
72585;BME280;60618;40.084;32.908;2022-08-19T13:14:24;88999.66;;;31.59;25.14
72585;BME280;60618;40.084;32.908;2022-08-19T13:16:52;88992.75;;;31.58;25.05
72585;BME280;60618;40.084;32.908;2022-08-19T13:19:19;88998.97;;;31.58;25.18
72585;BME280;60618;40.084;32.908;2022-08-19T13:21:49;88993.06;;;31.50;25.50
72585;BME280;60618;40.084;32.908;2022-08-19T13:24:25;89005.41;;;31.49;25.46
72585;BME280;60618;40.084;32.908;2022-08-19T13:27:00;88998.91;;;31.43;25.50
72585;BME280;60618;40.084;32.908;2022-08-19T13:29:27;89001.97;;;31.35;25.64
72585;BME280;60618;40.084;32.908;2022-08-19T13:31:54;89002.41;;;31.29;25.54
72585;BME280;60618;40.084;32.908;2022-08-19T13:34:32;89002.81;;;31.24;25.96
72585;BME280;60618;40.084;32.908;2022-08-19T13:36:59;89008.25;;;31.22;26.02